createdAt,value
2023-05-22T00:03:00.885Z,66.30
2023-05-22T00:06:43.505Z,66.70
2023-05-22T00:10:25.364Z,66.90
2023-05-22T00:14:07.260Z,67.20
2023-05-22T00:17:49.163Z,67.60
2023-05-22T00:21:37.628Z,67.80
2023-05-22T00:25:19.826Z,67.80
2023-05-22T00:29:01.762Z,67.80
2023-05-22T00:32:43.628Z,68.10
2023-05-22T00:36:25.531Z,68.40
2023-05-22T00:40:08.485Z,68.70
2023-05-22T00:43:51.355Z,68.80
2023-05-22T00:47:33.218Z,68.70
2023-05-22T00:51:15.488Z,69.00
2023-05-22T00:54:57.650Z,69.30
2023-05-22T00:58:39.756Z,69.60
2023-05-22T01:02:22.018Z,69.80
2023-05-22T01:06:04.341Z,70.20
2023-05-22T01:09:46.272Z,70.50
2023-05-22T01:13:48.186Z,70.50
2023-05-22T01:17:46.303Z,70.30
2023-05-22T01:21:52.362Z,70.40
2023-05-22T01:25:58.723Z,70.50
2023-05-22T01:29:58.796Z,70.60
2023-05-22T01:33:51.332Z,70.60
2023-05-22T01:37:34.180Z,70.70
2023-05-22T01:41:17.150Z,70.80
2023-05-22T01:44:59.058Z,70.70
2023-05-22T01:48:40.915Z,71.00
2023-05-22T01:53:07.684Z,71.00
2023-05-22T01:56:55.795Z,70.70
2023-05-22T02:00:43.738Z,71.30
2023-05-22T02:04:27.236Z,71.50
2023-05-22T02:08:10.606Z,71.70
2023-05-22T02:11:52.639Z,72.10
2023-05-22T02:15:34.643Z,72.30
2023-05-22T02:19:16.726Z,72.50
2023-05-22T02:22:58.570Z,72.70
2023-05-22T02:26:40.602Z,72.80
2023-05-22T02:30:22.509Z,72.80
2023-05-22T02:34:06.570Z,72.90
2023-05-22T02:37:48.433Z,73.10
2023-05-22T02:41:30.398Z,73.30
2023-05-22T02:45:12.224Z,73.30
2023-05-22T02:48:54.048Z,73.50
2023-05-22T02:52:37.027Z,73.40
2023-05-22T02:56:19.013Z,73.90
2023-05-22T03:00:01.608Z,74.10
2023-05-22T03:03:43.874Z,74.30
2023-05-22T03:07:31.865Z,74.50
2023-05-22T03:11:13.714Z,74.60
2023-05-22T03:14:55.529Z,74.70
2023-05-22T03:18:37.447Z,74.90
2023-05-22T03:22:19.294Z,74.70
2023-05-22T03:26:01.582Z,74.60
2023-05-22T03:29:43.408Z,74.50
2023-05-22T03:33:25.321Z,74.80
2023-05-22T03:37:09.054Z,75.30
2023-05-22T03:40:50.940Z,75.60
2023-05-22T03:44:32.782Z,75.80
2023-05-22T03:48:14.669Z,75.80
2023-05-22T03:51:56.575Z,75.80
2023-05-22T03:55:38.416Z,75.70
2023-05-22T03:59:20.393Z,76.00
2023-05-22T04:03:02.311Z,76.00
2023-05-22T04:06:44.449Z,76.20
2023-05-22T04:10:26.291Z,76.30
2023-05-22T04:14:08.565Z,76.30
2023-05-22T04:17:51.252Z,76.00
2023-05-22T04:21:36.099Z,76.40
2023-05-22T04:25:17.966Z,76.70
2023-05-22T04:28:59.806Z,76.90
2023-05-22T04:32:41.770Z,77.00
2023-05-22T04:36:26.106Z,77.20
2023-05-22T04:40:10.161Z,77.30
2023-05-22T04:43:53.013Z,77.50
2023-05-22T04:47:35.033Z,77.60
2023-05-22T04:51:16.977Z,77.60
2023-05-22T04:55:00.519Z,77.80
2023-05-22T04:58:43.094Z,77.70
2023-05-22T05:02:25.057Z,77.80
2023-05-22T05:06:08.451Z,77.90
2023-05-22T05:09:50.414Z,78.20
2023-05-22T05:13:32.394Z,78.60
2023-05-22T05:17:14.510Z,78.70
2023-05-22T05:20:56.430Z,79.00
2023-05-22T05:24:38.366Z,79.20
2023-05-22T05:28:20.541Z,79.40
2023-05-22T05:32:02.452Z,79.50
2023-05-22T05:35:44.309Z,79.60
2023-05-22T05:39:26.169Z,80.00
2023-05-22T05:43:09.348Z,80.00
2023-05-22T05:46:52.540Z,80.40
2023-05-22T05:50:34.453Z,80.70
2023-05-22T05:54:16.347Z,80.80
2023-05-22T05:57:58.183Z,80.90
2023-05-22T06:01:44.645Z,81.10
2023-05-22T06:05:27.079Z,81.40
2023-05-22T06:09:10.070Z,81.60
2023-05-22T06:12:52.055Z,81.90
2023-05-22T06:16:33.936Z,82.10
2023-05-22T06:20:15.900Z,82.20
2023-05-22T06:23:58.785Z,81.90
2023-05-22T06:27:40.994Z,81.80
2023-05-22T06:31:23.154Z,81.40
2023-05-22T06:35:05.373Z,80.80
2023-05-22T06:38:47.977Z,79.70
2023-05-22T06:42:29.892Z,78.70
2023-05-22T06:46:11.761Z,78.00
2023-05-22T06:49:53.631Z,77.20
2023-05-22T06:53:35.671Z,76.40
2023-05-22T06:57:17.589Z,75.80
2023-05-22T07:00:59.722Z,75.30
2023-05-22T07:04:41.638Z,74.40
2023-05-22T07:08:23.879Z,74.10
2023-05-22T07:12:06.632Z,74.10
2023-05-22T07:15:48.824Z,74.20
2023-05-22T07:19:31.112Z,72.60
2023-05-22T07:23:13.111Z,72.40
2023-05-22T07:26:54.996Z,71.90
2023-05-22T07:30:38.601Z,71.00
2023-05-22T07:34:20.881Z,70.70
2023-05-22T07:38:04.206Z,70.90
2023-05-22T07:41:50.257Z,70.70
2023-05-22T07:45:32.221Z,71.00
2023-05-22T07:49:19.466Z,69.90
2023-05-22T07:53:01.389Z,69.80
2023-05-22T07:56:43.393Z,69.40
2023-05-22T08:00:25.678Z,69.00
2023-05-22T08:04:08.223Z,68.50
2023-05-22T08:07:50.279Z,67.80
2023-05-22T08:11:32.273Z,67.10
2023-05-22T08:15:14.188Z,67.10
2023-05-22T08:18:56.086Z,65.90
2023-05-22T08:22:39.526Z,65.30
2023-05-22T08:26:21.451Z,65.10
2023-05-22T08:30:04.690Z,65.10
2023-05-22T08:33:46.770Z,63.70
2023-05-22T08:37:28.625Z,63.10
2023-05-22T08:41:11.624Z,62.30
2023-05-22T08:44:55.462Z,61.40
2023-05-22T08:48:38.321Z,60.00
2023-05-22T08:52:23.279Z,58.80
2023-05-22T08:56:07.218Z,57.80
2023-05-22T08:59:50.580Z,57.50
2023-05-22T09:03:32.940Z,57.70
2023-05-22T09:07:15.011Z,57.30
2023-05-22T09:10:57.050Z,57.40
2023-05-22T09:14:42.932Z,56.60
2023-05-22T09:18:29.293Z,56.20
2023-05-22T09:22:11.312Z,55.20
2023-05-22T09:25:59.080Z,55.00
2023-05-22T09:29:52.568Z,55.10
2023-05-22T09:33:37.619Z,55.20
2023-05-22T09:37:19.548Z,54.90
2023-05-22T09:41:01.829Z,54.40
2023-05-22T09:44:48.789Z,54.30
2023-05-22T09:48:39.716Z,54.10
2023-05-22T09:52:23.805Z,53.80
2023-05-22T09:56:11.440Z,54.00
2023-05-22T09:59:58.157Z,53.50
2023-05-22T10:03:43.093Z,52.50
2023-05-22T10:07:30.199Z,52.50
2023-05-22T10:11:12.983Z,52.40
2023-05-22T10:14:55.746Z,52.80
2023-05-22T10:18:38.484Z,53.20
2023-05-22T10:22:22.642Z,51.90
2023-05-22T10:26:06.113Z,51.40
2023-05-22T10:29:54.942Z,50.90
2023-05-22T10:33:48.754Z,51.70
2023-05-22T10:37:51.547Z,51.20
2023-05-22T10:41:34.811Z,50.00
2023-05-22T10:45:16.792Z,50.40
2023-05-22T10:48:58.761Z,48.80
2023-05-22T10:52:41.056Z,48.50
2023-05-22T10:56:25.318Z,48.80
2023-05-22T11:00:09.967Z,47.60
2023-05-22T11:03:59.001Z,46.40
2023-05-22T11:07:41.546Z,46.50
2023-05-22T11:11:28.226Z,45.50
2023-05-22T11:15:11.072Z,44.30
2023-05-22T11:19:22.658Z,43.70
2023-05-22T11:23:10.226Z,44.00
2023-05-22T11:27:08.170Z,38.90
2023-05-22T11:30:50.852Z,41.80
2023-05-22T11:34:32.780Z,38.60
2023-05-22T11:38:15.327Z,37.60
2023-05-22T11:41:57.278Z,37.30
2023-05-22T11:45:39.910Z,35.60
2023-05-22T11:49:24.185Z,35.20
2023-05-22T11:53:06.144Z,33.10
2023-05-22T11:56:48.696Z,32.60
2023-05-22T12:00:33.811Z,32.60
2023-05-22T12:04:16.139Z,31.90
2023-05-22T12:07:58.203Z,31.00
2023-05-22T12:11:40.084Z,31.30
2023-05-22T12:15:22.175Z,30.90
2023-05-22T12:19:09.128Z,30.30
2023-05-22T12:22:51.109Z,30.90
2023-05-22T12:26:33.217Z,29.60
2023-05-22T12:30:15.870Z,30.70
2023-05-22T12:33:58.010Z,30.00
2023-05-22T12:37:39.836Z,30.40
2023-05-22T12:41:21.693Z,29.70
2023-05-22T12:45:03.837Z,30.00
2023-05-22T12:48:45.773Z,30.10
2023-05-22T12:52:27.630Z,30.50
2023-05-22T12:56:09.496Z,29.70
2023-05-22T12:59:51.354Z,29.00
2023-05-22T13:03:33.362Z,30.00
2023-05-22T13:07:15.388Z,29.90
2023-05-22T13:10:57.488Z,29.70
2023-05-22T13:14:40.630Z,29.70
2023-05-22T13:18:22.750Z,29.40
2023-05-22T13:22:05.012Z,28.80
2023-05-22T13:25:46.843Z,29.30
2023-05-22T13:29:28.828Z,30.30
2023-05-22T13:33:10.950Z,29.30
2023-05-22T13:36:52.924Z,29.20
2023-05-22T13:40:34.771Z,28.70
2023-05-22T13:44:16.706Z,28.70
2023-05-22T13:47:58.716Z,29.20
2023-05-22T13:51:40.674Z,29.30
2023-05-22T13:55:23.001Z,29.50
2023-05-22T13:59:09.307Z,29.20
2023-05-22T14:02:51.702Z,29.10
2023-05-22T14:06:33.707Z,29.30
2023-05-22T14:10:15.764Z,29.60
2023-05-22T14:13:57.767Z,30.00
2023-05-22T14:17:39.662Z,30.70
2023-05-22T14:21:21.608Z,32.10
2023-05-22T14:25:03.596Z,31.70
2023-05-22T14:28:45.577Z,32.80
2023-05-22T14:32:27.607Z,33.50
2023-05-22T14:36:09.554Z,34.30
2023-05-22T14:39:51.392Z,32.80
2023-05-22T14:43:33.611Z,33.20
2023-05-22T14:47:15.544Z,35.20
2023-05-22T14:50:57.682Z,34.20
2023-05-22T14:54:39.596Z,34.20
2023-05-22T14:58:21.505Z,35.40
2023-05-22T15:02:03.619Z,35.50
2023-05-22T15:05:45.582Z,36.10
2023-05-22T15:09:27.522Z,34.60
2023-05-22T15:13:10.908Z,35.30
2023-05-22T15:16:52.755Z,34.60
2023-05-22T15:20:35.072Z,35.40
2023-05-22T15:24:16.982Z,35.00
2023-05-22T15:28:00.243Z,35.30
2023-05-22T15:31:42.165Z,36.00
2023-05-22T15:35:24.341Z,36.70
2023-05-22T15:39:06.600Z,37.70
2023-05-22T15:42:48.777Z,37.40
2023-05-22T15:46:30.798Z,37.00
2023-05-22T15:50:13.032Z,38.30
2023-05-22T15:53:54.888Z,38.10
2023-05-22T15:57:36.836Z,39.50
2023-05-22T16:01:18.808Z,38.10
2023-05-22T16:05:00.882Z,40.20
2023-05-22T16:08:42.761Z,39.80
2023-05-22T16:12:24.668Z,39.40
2023-05-22T16:16:06.701Z,40.50
2023-05-22T16:19:48.630Z,39.20
2023-05-22T16:23:30.603Z,39.20
2023-05-22T16:27:12.547Z,39.60
2023-05-22T16:30:54.430Z,40.50
2023-05-22T16:34:36.577Z,40.50
2023-05-22T16:38:18.454Z,41.90
2023-05-22T16:42:01.517Z,42.00
2023-05-22T16:45:47.481Z,42.40
2023-05-22T16:49:29.342Z,43.00
2023-05-22T16:53:11.236Z,41.30
2023-05-22T16:56:53.139Z,44.20
2023-05-22T17:00:36.233Z,43.90
2023-05-22T17:04:20.645Z,43.80
2023-05-22T17:08:03.144Z,44.00
2023-05-22T17:11:45.466Z,44.40
2023-05-22T17:15:27.341Z,44.80
2023-05-22T17:19:09.907Z,44.30
2023-05-22T17:22:52.496Z,44.60
2023-05-22T17:26:34.546Z,44.90
2023-05-22T17:30:16.541Z,45.00
2023-05-22T17:33:58.418Z,45.80
2023-05-22T17:37:40.570Z,46.10
2023-05-22T17:41:24.301Z,45.50
2023-05-22T17:45:06.856Z,45.80
2023-05-22T17:48:48.762Z,46.70
2023-05-22T17:52:30.678Z,46.50
2023-05-22T17:56:12.594Z,46.50
2023-05-22T17:59:54.643Z,46.90
2023-05-22T18:03:36.591Z,46.90
2023-05-22T18:07:19.992Z,47.20
2023-05-22T18:11:01.911Z,46.80
2023-05-22T18:14:43.824Z,47.10
2023-05-22T18:18:25.757Z,47.40
2023-05-22T18:22:07.638Z,47.30
2023-05-22T18:25:49.549Z,47.90
2023-05-22T18:29:31.485Z,48.50
2023-05-22T18:33:13.437Z,48.90
2023-05-22T18:36:55.429Z,49.60
2023-05-22T18:40:37.350Z,50.10
2023-05-22T18:44:19.188Z,50.80
2023-05-22T18:48:01.128Z,51.40
2023-05-22T18:51:45.080Z,51.70
2023-05-22T18:55:27.246Z,52.30
2023-05-22T18:59:09.100Z,52.80
2023-05-22T19:02:51.155Z,52.90
2023-05-22T19:06:33.103Z,53.20
2023-05-22T19:10:14.961Z,53.10
2023-05-22T19:13:56.816Z,53.30
2023-05-22T19:17:38.789Z,53.50
2023-05-22T19:21:20.721Z,53.60
2023-05-22T19:25:02.944Z,53.80
2023-05-22T19:28:45.024Z,53.70
2023-05-22T19:32:27.613Z,53.90
2023-05-22T19:36:09.983Z,54.10
2023-05-22T19:39:52.579Z,54.20
2023-05-22T19:43:35.379Z,54.30
2023-05-22T19:47:17.998Z,54.60
2023-05-22T19:51:00.221Z,54.70
2023-05-22T19:54:42.109Z,55.20
2023-05-22T19:58:29.098Z,55.50
2023-05-22T20:02:11.032Z,55.70
2023-05-22T20:05:55.747Z,56.00
2023-05-22T20:09:37.726Z,56.40
2023-05-22T20:13:19.634Z,56.60
2023-05-22T20:17:02.834Z,57.00
2023-05-22T20:20:45.472Z,57.00
2023-05-22T20:24:27.804Z,57.40
2023-05-22T20:28:09.719Z,57.50
2023-05-22T20:31:54.663Z,57.80
2023-05-22T20:35:37.240Z,58.30
2023-05-22T20:39:19.173Z,58.60
2023-05-22T20:43:02.730Z,58.30
2023-05-22T20:46:44.616Z,58.50
2023-05-22T20:50:27.193Z,58.60
2023-05-22T20:54:09.009Z,58.70
2023-05-22T20:57:50.866Z,59.00
2023-05-22T21:01:32.828Z,59.00
2023-05-22T21:05:14.686Z,59.00
2023-05-22T21:08:59.768Z,59.00
2023-05-22T21:12:41.711Z,59.00
2023-05-22T21:16:24.882Z,58.90
2023-05-22T21:20:08.172Z,58.90
2023-05-22T21:23:50.851Z,59.20
2023-05-22T21:27:32.716Z,59.10
2023-05-22T21:31:14.643Z,59.30
2023-05-22T21:34:56.606Z,59.40
2023-05-22T21:38:38.423Z,59.50
2023-05-22T21:42:20.414Z,59.70
2023-05-22T21:46:02.235Z,59.80
2023-05-22T21:49:44.062Z,60.20
2023-05-22T21:53:25.979Z,60.40
2023-05-22T21:57:07.955Z,60.00
2023-05-22T22:00:49.795Z,59.80
2023-05-22T22:04:31.632Z,59.60
2023-05-22T22:08:13.429Z,59.80
2023-05-22T22:11:55.276Z,59.60
2023-05-22T22:15:37.195Z,60.00
2023-05-22T22:19:19.135Z,60.20
2023-05-22T22:23:01.259Z,60.80
2023-05-22T22:26:45.638Z,61.10
2023-05-22T22:30:27.590Z,61.50
2023-05-22T22:34:09.468Z,61.40
2023-05-22T22:37:51.396Z,61.70
2023-05-22T22:41:33.256Z,61.80
2023-05-22T22:45:15.183Z,62.30
2023-05-22T22:48:58.883Z,62.30
2023-05-22T22:52:45.367Z,62.30
2023-05-22T22:56:30.175Z,63.30
2023-05-22T23:00:13.339Z,60.00
2023-05-22T23:03:55.344Z,62.70
2023-05-22T23:07:37.531Z,63.10
2023-05-22T23:11:19.425Z,63.40
2023-05-22T23:15:01.926Z,63.70
2023-05-22T23:18:43.818Z,64.00
2023-05-22T23:22:25.649Z,64.20
2023-05-22T23:26:07.470Z,64.40
2023-05-22T23:29:49.316Z,64.50
2023-05-22T23:33:31.183Z,64.70
2023-05-22T23:37:13.060Z,64.90
2023-05-22T23:40:54.912Z,65.20
2023-05-22T23:44:37.288Z,65.00
2023-05-22T23:48:19.110Z,64.80
2023-05-22T23:52:00.995Z,64.90
2023-05-22T23:55:43.016Z,65.20
2023-05-22T23:59:24.987Z,65.30
